Time;durP1;ratioP1;P1;durP2;ratioP2;P2;SDS_P1;SDS_P2;PMS_P1;PMS_P2;Temp;Humidity;BMP_temperature;BMP_pressure;BME280_temperature;BME280_humidity;BME280_pressure;Samples;Min_cycle;Max_cycle;Signal;HPM_P1;HPM_P2
2022/06/13 00:00:50;;;;;;;13.45;4.70;;;;;;;;;;5085685;27;93939;-77
2022/06/13 00:03:16;;;;;;;12.88;4.70;;;;;;;;;;5095462;27;94968;-77
2022/06/13 00:05:43;;;;;;;14.02;5.00;;;;;;;;;;5078122;27;96583;-77
2022/06/13 00:08:09;;;;;;;14.27;4.43;;;;;;;;;;5073644;27;93787;-77
2022/06/13 00:10:36;;;;;;;8.38;4.30;;;;;;;;;;5075168;27;93219;-77
2022/06/13 00:13:03;;;;;;;27.98;4.45;;;;;;;;;;5078829;27;93430;-77
2022/06/13 00:15:29;;;;;;;12.55;4.70;;;;;;;;;;5091685;27;92547;-77
2022/06/13 00:17:55;;;;;;;11.88;4.35;;;;;;;;;;5088841;27;93083;-76
2022/06/13 00:20:22;;;;;;;11.93;4.30;;;;;;;;;;5079113;27;92739;-77
2022/06/13 00:22:48;;;;;;;9.85;3.75;;;;;;;;;;5059843;27;93060;-77
2022/06/13 00:25:16;;;;;;;14.70;4.65;;;;;;;;;;5066670;27;92916;-77
2022/06/13 00:27:43;;;;;;;14.75;4.55;;;;;;;;;;5074482;27;95633;-77
2022/06/13 00:30:10;;;;;;;14.85;5.18;;;;;;;;;;5060089;27;93895;-77
2022/06/13 00:32:36;;;;;;;12.43;4.72;;;;;;;;;;5066805;27;93235;-77
2022/06/13 00:35:03;;;;;;;11.30;4.28;;;;;;;;;;5060044;27;92520;-77
2022/06/13 00:37:29;;;;;;;11.80;4.43;;;;;;;;;;5054884;27;93157;-77
2022/06/13 00:39:56;;;;;;;14.10;4.10;;;;;;;;;;5064997;27;93479;-77
2022/06/13 00:42:24;;;;;;;13.07;4.93;;;;;;;;;;5071766;27;92421;-77
2022/06/13 00:45:06;;;;;;;12.00;4.40;;;;;;;;;;5038925;27;94181;-77
2022/06/13 00:47:32;;;;;;;9.00;4.03;;;;;;;;;;5049467;27;93439;-77
2022/06/13 00:50:00;;;;;;;10.95;4.38;;;;;;;;;;5069936;27;92464;-77
2022/06/13 00:52:49;;;;;;;16.02;4.40;;;;;;;;;;5037966;27;95552;-77
2022/06/13 00:55:20;;;;;;;13.80;4.50;;;;;;;;;;5050330;27;92501;-77
2022/06/13 00:57:46;;;;;;;;;;;;;;;;;;5065241;27;92437;-77
2022/06/13 01:00:13;;;;;;;23.60;5.20;;;;;;;;;;5057528;27;123965;-77
2022/06/13 01:02:41;;;;;;;10.07;4.30;;;;;;;;;;5063016;27;92486;-77
2022/06/13 01:05:08;;;;;;;19.13;5.22;;;;;;;;;;5075587;27;93760;-77
2022/06/13 01:07:36;;;;;;;20.27;5.32;;;;;;;;;;5071451;27;93666;-77
2022/06/13 01:12:48;;;;;;;9.52;4.65;;;;;;;;;;5073730;27;94424;-77
2022/06/13 01:15:15;;;;;;;11.73;5.32;;;;;;;;;;5066000;27;93300;-77
2022/06/13 01:17:44;;;;;;;10.27;4.90;;;;;;;;;;5053895;27;96146;-77
2022/06/13 01:20:21;;;;;;;13.45;5.25;;;;;;;;;;5060526;27;93270;-77
2022/06/13 01:23:16;;;;;;;18.15;5.80;;;;;;;;;;5086357;27;92466;-77
2022/06/13 01:25:48;;;;;;;13.77;5.13;;;;;;;;;;5093579;27;93094;-77
2022/06/13 01:28:36;;;;;;;15.52;5.47;;;;;;;;;;5090487;27;93190;-77
2022/06/13 01:31:08;;;;;;;19.95;5.20;;;;;;;;;;5084506;27;92527;-77
2022/06/13 01:33:54;;;;;;;13.85;5.10;;;;;;;;;;5089396;27;93813;-77
2022/06/13 01:36:31;;;;;;;17.45;5.65;;;;;;;;;;5085440;27;93031;-77
2022/06/13 01:39:16;;;;;;;17.35;5.88;;;;;;;;;;5063365;27;92509;-77
2022/06/13 01:42:01;;;;;;;19.58;6.45;;;;;;;;;;5079608;27;93195;-77
2022/06/13 01:44:46;;;;;;;21.83;6.18;;;;;;;;;;5080523;27;94901;-78
2022/06/13 01:47:17;;;;;;;17.92;6.43;;;;;;;;;;5077736;27;95874;-77
2022/06/13 01:49:57;;;;;;;17.70;5.45;;;;;;;;;;5062639;27;94076;-77
2022/06/13 01:52:26;;;;;;;14.97;5.70;;;;;;;;;;5066041;27;92464;-77
2022/06/13 01:54:57;;;;;;;14.15;5.53;;;;;;;;;;5095617;27;93286;-77
2022/06/13 01:57:42;;;;;;;22.05;6.43;;;;;;;;;;5086421;27;93964;-77
2022/06/13 02:00:10;;;;;;;17.35;5.82;;;;;;;;;;5075585;27;92576;-77
2022/06/13 02:02:36;;;;;;;25.25;6.18;;;;;;;;;;5084851;27;92465;-77
2022/06/13 02:05:11;;;;;;;14.32;5.70;;;;;;;;;;5093025;27;92476;-77
2022/06/13 02:07:42;;;;;;;18.38;6.32;;;;;;;;;;5063494;27;93169;-77
2022/06/13 02:10:32;;;;;;;21.55;5.70;;;;;;;;;;5072725;27;98044;-77
2022/06/13 02:13:03;;;;;;;16.30;5.75;;;;;;;;;;5081679;27;93204;-77
2022/06/13 02:15:33;;;;;;;20.00;5.78;;;;;;;;;;5073051;27;93094;-77
2022/06/13 02:18:02;;;;;;;17.50;6.40;;;;;;;;;;5075979;27;93272;-77
2022/06/13 02:20:36;;;;;;;20.13;6.35;;;;;;;;;;5048224;27;92456;-77
2022/06/13 02:23:08;;;;;;;13.52;5.43;;;;;;;;;;5093131;27;92855;-77
2022/06/13 02:25:45;;;;;;;20.23;6.28;;;;;;;;;;5086507;27;92688;-77
2022/06/13 02:28:17;;;;;;;15.55;6.15;;;;;;;;;;5067279;27;93266;-77
2022/06/13 02:30:46;;;;;;;11.27;5.38;;;;;;;;;;5091623;27;93320;-77
2022/06/13 02:33:14;;;;;;;12.95;6.65;;;;;;;;;;5087080;27;94039;-77
2022/06/13 02:35:46;;;;;;;17.25;5.68;;;;;;;;;;5088744;27;95100;-77
2022/06/13 02:38:16;;;;;;;11.95;5.53;;;;;;;;;;5081912;27;94012;-77
2022/06/13 02:40:47;;;;;;;19.85;5.32;;;;;;;;;;5084065;27;92527;-77
2022/06/13 02:43:13;;;;;;;13.98;5.60;;;;;;;;;;5071912;27;92943;-76
2022/06/13 02:46:03;;;;;;;12.88;5.50;;;;;;;;;;5063449;27;93314;-77
2022/06/13 02:48:38;;;;;;;14.32;5.65;;;;;;;;;;5072491;27;96224;-77
2022/06/13 02:51:20;;;;;;;12.00;5.35;;;;;;;;;;5078731;27;93265;-77
2022/06/13 02:53:54;;;;;;;12.55;5.40;;;;;;;;;;5080777;27;91828;-77
2022/06/13 02:56:31;;;;;;;17.92;5.45;;;;;;;;;;5059843;27;93109;-77
2022/06/13 02:59:04;;;;;;;14.75;5.38;;;;;;;;;;5070009;27;93194;-77
2022/06/13 03:01:44;;;;;;;22.00;5.75;;;;;;;;;;5087781;27;94896;-77
2022/06/13 03:04:24;;;;;;;16.33;5.70;;;;;;;;;;5095049;27;98309;-77
2022/06/13 03:06:58;;;;;;;21.48;5.50;;;;;;;;;;5094482;27;93432;-77
2022/06/13 03:09:28;;;;;;;13.15;5.28;;;;;;;;;;5089102;27;92487;-77
2022/06/13 03:11:58;;;;;;;10.93;4.93;;;;;;;;;;5090283;27;93269;-77
2022/06/13 03:14:42;;;;;;;18.10;5.00;;;;;;;;;;5070731;27;92963;-77
2022/06/13 03:17:19;;;;;;;18.98;6.25;;;;;;;;;;5081934;27;93051;-77
2022/06/13 03:19:49;;;;;;;16.05;5.75;;;;;;;;;;5064469;27;92703;-77
2022/06/13 03:22:18;;;;;;;14.32;5.47;;;;;;;;;;5092919;27;92423;-77
2022/06/13 03:24:52;;;;;;;18.17;5.77;;;;;;;;;;5081812;27;93644;-77
2022/06/13 03:27:22;;;;;;;20.02;6.05;;;;;;;;;;5077221;27;95845;-77
2022/06/13 03:29:54;;;;;;;18.50;6.28;;;;;;;;;;5091053;27;92444;-77
2022/06/13 03:32:22;;;;;;;16.38;5.47;;;;;;;;;;5089992;27;93253;-77
2022/06/13 03:34:51;;;;;;;18.73;6.63;;;;;;;;;;5094054;27;92654;-77
2022/06/13 03:37:20;;;;;;;17.63;5.45;;;;;;;;;;5090618;27;93512;-77
2022/06/13 03:39:49;;;;;;;18.23;6.20;;;;;;;;;;5074709;27;93759;-77
2022/06/13 03:42:17;;;;;;;15.18;7.68;;;;;;;;;;5094182;27;92564;-77
2022/06/13 03:45:01;;;;;;;20.10;6.28;;;;;;;;;;5072355;27;96056;-77
2022/06/13 03:47:30;;;;;;;14.95;6.20;;;;;;;;;;5079293;27;92941;-77
2022/06/13 03:49:59;;;;;;;17.88;6.18;;;;;;;;;;5085515;27;92494;-77
2022/06/13 03:52:27;;;;;;;18.13;6.80;;;;;;;;;;5080212;27;94910;-77
2022/06/13 03:55:07;;;;;;;16.17;7.00;;;;;;;;;;5085066;27;92566;-77
2022/06/13 03:57:35;;;;;;;23.17;7.93;;;;;;;;;;5095320;27;93141;-77
2022/06/13 04:00:05;;;;;;;23.08;7.30;;;;;;;;;;5089390;27;93546;-77
2022/06/13 04:02:33;;;;;;;24.75;7.63;;;;;;;;;;5078066;27;92851;-77
2022/06/13 04:04:59;;;;;;;24.75;8.05;;;;;;;;;;5082369;27;92744;-77
2022/06/13 04:07:27;;;;;;;26.52;8.90;;;;;;;;;;5081516;27;93628;-77
2022/06/13 04:09:55;;;;;;;19.20;8.18;;;;;;;;;;5081681;27;93233;-77
2022/06/13 04:12:25;;;;;;;29.95;8.75;;;;;;;;;;5092976;27;95443;-77
2022/06/13 04:14:57;;;;;;;25.65;8.38;;;;;;;;;;5069496;27;92483;-77
2022/06/13 04:17:35;;;;;;;24.85;8.02;;;;;;;;;;5081073;27;94874;-77
2022/06/13 04:20:14;;;;;;;30.73;8.07;;;;;;;;;;5097002;27;93194;-77
2022/06/13 04:22:48;;;;;;;23.30;8.07;;;;;;;;;;5065747;27;92471;-77
2022/06/13 04:25:33;;;;;;;38.78;7.90;;;;;;;;;;5088463;27;93086;-77
2022/06/13 04:28:03;;;;;;;26.40;8.35;;;;;;;;;;5096322;27;93227;-77
2022/06/13 04:30:30;;;;;;;30.08;8.85;;;;;;;;;;5067139;27;92482;-77
2022/06/13 04:33:03;;;;;;;35.72;8.38;;;;;;;;;;5072841;27;93173;-77
2022/06/13 04:35:31;;;;;;;24.80;7.53;;;;;;;;;;5097112;27;92740;-77
2022/06/13 04:38:00;;;;;;;26.83;8.80;;;;;;;;;;5084651;27;93116;-77
2022/06/13 04:40:27;;;;;;;32.50;7.78;;;;;;;;;;5092223;27;93365;-77
2022/06/13 04:42:54;;;;;;;27.80;8.85;;;;;;;;;;5089598;27;94825;-77
2022/06/13 04:45:36;;;;;;;29.42;8.32;;;;;;;;;;5074022;27;95559;-77
2022/06/13 04:48:03;;;;;;;22.48;8.13;;;;;;;;;;5081939;27;93494;-77
2022/06/13 04:50:34;;;;;;;32.83;9.23;;;;;;;;;;5082103;27;94093;-77
2022/06/13 04:53:01;;;;;;;29.25;7.57;;;;;;;;;;5096849;27;94076;-77
2022/06/13 04:55:40;;;;;;;28.75;8.02;;;;;;;;;;5088337;27;93315;-77
2022/06/13 04:58:25;;;;;;;28.30;8.10;;;;;;;;;;5089511;27;93626;-77
2022/06/13 05:00:55;;;;;;;29.83;8.27;;;;;;;;;;5084661;27;92761;-77
2022/06/13 05:03:23;;;;;;;26.67;8.25;;;;;;;;;;5070209;27;92471;-77
2022/06/13 05:05:54;;;;;;;30.65;8.27;;;;;;;;;;5089620;27;94264;-77
2022/06/13 05:08:25;;;;;;;29.55;8.20;;;;;;;;;;5075588;27;95909;-77
2022/06/13 05:10:53;;;;;;;25.98;8.52;;;;;;;;;;5059841;27;92538;-77
2022/06/13 05:13:20;;;;;;;29.75;8.48;;;;;;;;;;5079811;27;92990;-77
2022/06/13 05:15:53;;;;;;;26.17;8.07;;;;;;;;;;5094950;27;93234;-77
2022/06/13 05:18:38;;;;;;;28.50;7.68;;;;;;;;;;5085500;27;92484;-78
2022/06/13 05:21:19;;;;;;;22.58;7.25;;;;;;;;;;5088255;27;92970;-77
2022/06/13 05:23:51;;;;;;;30.60;7.72;;;;;;;;;;5085791;27;92929;-77
2022/06/13 05:26:17;;;;;;;27.15;8.43;;;;;;;;;;5096852;27;92945;-77
2022/06/13 05:28:44;;;;;;;25.30;7.28;;;;;;;;;;5073653;27;93864;-77
2022/06/13 05:31:13;;;;;;;21.10;7.22;;;;;;;;;;5057708;27;92452;-77
2022/06/13 05:33:41;;;;;;;36.40;7.83;;;;;;;;;;5074630;27;94779;-77
2022/06/13 05:36:11;;;;;;;24.73;7.63;;;;;;;;;;5080702;27;93404;-77
2022/06/13 05:38:41;;;;;;;29.65;8.07;;;;;;;;;;5081626;27;92571;-77
2022/06/13 05:41:08;;;;;;;19.10;6.93;;;;;;;;;;5096367;27;94293;-77
2022/06/13 05:43:34;;;;;;;21.67;7.15;;;;;;;;;;5073364;27;93217;-77
2022/06/13 05:46:02;;;;;;;26.75;7.18;;;;;;;;;;5091336;27;93185;-77
2022/06/13 05:48:29;;;;;;;23.15;6.38;;;;;;;;;;5085555;27;93357;-77
2022/06/13 05:50:55;;;;;;;17.42;5.38;;;;;;;;;;5089638;27;91737;-77
2022/06/13 05:53:22;;;;;;;20.33;5.05;;;;;;;;;;5076721;27;95411;-77
2022/06/13 05:55:49;;;;;;;24.73;4.15;;;;;;;;;;5082470;27;93605;-77
2022/06/13 05:58:16;;;;;;;18.98;4.40;;;;;;;;;;5080938;27;94907;-77
2022/06/13 06:00:47;;;;;;;15.98;4.18;;;;;;;;;;5093716;27;95617;-77
2022/06/13 06:03:14;;;;;;;10.80;3.65;;;;;;;;;;5077248;27;93589;-77
2022/06/13 06:05:40;;;;;;;15.32;4.13;;;;;;;;;;5078643;27;92430;-77
2022/06/13 06:08:16;;;;;;;23.10;3.63;;;;;;;;;;5057753;27;93734;-77
2022/06/13 06:10:43;;;;;;;13.18;3.50;;;;;;;;;;5074859;27;93082;-77
2022/06/13 06:13:13;;;;;;;16.45;3.05;;;;;;;;;;5075580;27;93570;-77
2022/06/13 06:15:43;;;;;;;9.82;2.58;;;;;;;;;;5086733;27;92721;-77
2022/06/13 06:18:10;;;;;;;13.40;3.50;;;;;;;;;;5058699;27;93260;-76
2022/06/13 06:20:36;;;;;;;8.85;2.53;;;;;;;;;;5080418;27;93228;-77
2022/06/13 06:23:03;;;;;;;8.20;2.17;;;;;;;;;;5068568;27;96151;-77
2022/06/13 06:25:29;;;;;;;8.75;2.50;;;;;;;;;;5053780;27;92449;-74
2022/06/13 06:27:56;;;;;;;9.38;2.40;;;;;;;;;;5052990;27;93294;-75
2022/06/13 06:30:22;;;;;;;8.60;2.28;;;;;;;;;;5055233;27;92456;-74
2022/06/13 06:32:54;;;;;;;12.27;2.28;;;;;;;;;;5053831;27;94262;-73
2022/06/13 06:35:21;;;;;;;6.85;2.47;;;;;;;;;;5063098;27;93715;-74
2022/06/13 06:37:48;;;;;;;10.38;2.28;;;;;;;;;;5075383;27;92461;-73
2022/06/13 06:40:16;;;;;;;14.25;2.35;;;;;;;;;;5076158;27;93212;-73
2022/06/13 06:42:42;;;;;;;16.02;2.40;;;;;;;;;;5037185;27;92409;-75
2022/06/13 06:45:20;;;;;;;12.15;2.17;;;;;;;;;;5053946;27;92426;-75
2022/06/13 06:47:46;;;;;;;20.35;3.30;;;;;;;;;;5052671;27;94720;-73
2022/06/13 06:50:14;;;;;;;11.05;2.40;;;;;;;;;;5059022;27;93297;-71
2022/06/13 06:52:40;;;;;;;23.58;2.30;;;;;;;;;;5054752;27;93011;-73
2022/06/13 07:00:42;;;;;;;8.43;2.30;;;;;;;;;;5047719;27;93265;-73
2022/06/13 07:03:08;;;;;;;11.40;2.40;;;;;;;;;;5049276;27;94264;-75
2022/06/13 07:05:35;;;;;;;10.88;2.05;;;;;;;;;;5052811;27;92577;-74
2022/06/13 07:08:01;;;;;;;7.20;2.13;;;;;;;;;;5052958;27;92438;-75
2022/06/13 07:10:27;;;;;;;7.15;1.75;;;;;;;;;;5054614;27;94323;-75
2022/06/13 07:12:54;;;;;;;7.88;1.85;;;;;;;;;;5052193;27;95517;-75
2022/06/13 07:15:20;;;;;;;4.72;1.38;;;;;;;;;;5050135;27;93558;-75
2022/06/13 07:17:46;;;;;;;8.88;1.85;;;;;;;;;;5026148;27;92482;-75
2022/06/13 07:20:13;;;;;;;19.85;2.35;;;;;;;;;;5056720;27;93318;-76
2022/06/13 07:22:46;;;;;;;11.40;1.98;;;;;;;;;;5056334;27;92573;-75
2022/06/13 07:25:14;;;;;;;9.35;1.83;;;;;;;;;;5057688;27;92424;-76
2022/06/13 07:27:41;;;;;;;9.18;2.15;;;;;;;;;;5064347;27;93102;-75
2022/06/13 07:30:08;;;;;;;6.43;2.30;;;;;;;;;;5069105;27;92730;-75
2022/06/13 07:32:34;;;;;;;6.28;1.80;;;;;;;;;;5064898;27;92385;-75
2022/06/13 07:35:02;;;;;;;17.63;2.20;;;;;;;;;;5058025;27;96562;-76
2022/06/13 07:40:15;;;;;;;10.95;2.33;;;;;;;;;;5005371;27;95469;-77
2022/06/13 07:42:43;;;;;;;8.68;1.80;;;;;;;;;;5056348;27;93539;-73
2022/06/13 07:45:15;;;;;;;13.35;1.50;;;;;;;;;;5071846;27;92795;-75
2022/06/13 07:51:56;;;;;;;12.63;1.60;;;;;;;;;;5055895;27;86350;-70
2022/06/13 07:54:22;;;;;;;12.63;2.10;;;;;;;;;;5043151;27;87879;-70
2022/06/13 07:56:49;;;;;;;4.07;1.10;;;;;;;;;;5036349;27;86995;-72
2022/06/13 07:59:17;;;;;;;5.72;1.35;;;;;;;;;;5055782;27;86693;-72
2022/06/13 08:01:45;;;;;;;10.57;1.25;;;;;;;;;;5050204;27;87683;-70
2022/06/13 08:04:11;;;;;;;10.85;2.00;;;;;;;;;;5055852;27;87293;-70
2022/06/13 08:06:42;;;;;;;7.07;1.17;;;;;;;;;;5046026;27;87288;-70
2022/06/13 08:09:09;;;;;;;8.85;1.52;;;;;;;;;;5039168;27;88180;-70
2022/06/13 08:11:37;;;;;;;7.55;1.55;;;;;;;;;;5030913;27;88759;-70
2022/06/13 08:14:06;;;;;;;10.63;2.30;;;;;;;;;;5046068;27;87003;-70
2022/06/13 08:16:34;;;;;;;7.80;1.35;;;;;;;;;;5042730;27;87552;-70
2022/06/13 08:19:04;;;;;;;6.43;1.42;;;;;;;;;;5053851;27;87620;-70
2022/06/13 08:21:31;;;;;;;7.70;1.80;;;;;;;;;;5051015;27;87766;-70
2022/06/13 08:23:58;;;;;;;11.57;1.98;;;;;;;;;;5041164;27;87488;-70
2022/06/13 08:26:33;;;;;;;8.13;1.58;;;;;;;;;;5034202;27;87474;-69
2022/06/13 08:28:59;;;;;;;14.77;2.15;;;;;;;;;;5019123;27;87714;-70
2022/06/13 08:31:25;;;;;;;11.80;2.13;;;;;;;;;;5023499;28;87603;-70
2022/06/13 08:33:52;;;;;;;9.73;1.80;;;;;;;;;;5032336;27;87488;-70
2022/06/13 08:36:21;;;;;;;11.07;1.98;;;;;;;;;;5034881;27;87392;-69
2022/06/13 08:38:47;;;;;;;7.10;1.55;;;;;;;;;;5034634;27;87343;-70
2022/06/13 08:41:37;;;;;;;6.70;1.83;;;;;;;;;;5055283;27;89160;-70
2022/06/13 08:44:19;;;;;;;6.70;1.30;;;;;;;;;;5015111;27;87212;-70
2022/06/13 08:46:48;;;;;;;14.40;1.88;;;;;;;;;;5039956;27;86896;-70
2022/06/13 08:49:19;;;;;;;42.72;3.75;;;;;;;;;;5033843;28;89051;-69
2022/06/13 08:51:52;;;;;;;18.60;1.90;;;;;;;;;;5024946;28;87174;-69
2022/06/13 08:54:21;;;;;;;10.80;1.90;;;;;;;;;;5048343;27;87904;-69
2022/06/13 08:56:49;;;;;;;6.38;1.30;;;;;;;;;;5056488;27;87648;-69
2022/06/13 08:59:24;;;;;;;5.03;0.88;;;;;;;;;;5046071;27;88357;-69
2022/06/13 09:01:53;;;;;;;16.98;1.58;;;;;;;;;;5040482;27;88189;-69
2022/06/13 09:04:23;;;;;;;9.90;1.45;;;;;;;;;;5038254;28;87522;-68
2022/06/13 09:06:55;;;;;;;2.83;1.05;;;;;;;;;;5025804;27;88018;-69
2022/06/13 09:09:34;;;;;;;6.47;1.17;;;;;;;;;;5039733;28;87681;-69
2022/06/13 09:12:32;;;;;;;16.23;1.88;;;;;;;;;;5038566;27;87459;-69
2022/06/13 09:15:07;;;;;;;15.63;1.65;;;;;;;;;;5021454;27;88458;-68
2022/06/13 09:17:51;;;;;;;5.20;1.40;;;;;;;;;;5019732;28;87755;-68
2022/06/13 09:20:18;;;;;;;6.57;1.45;;;;;;;;;;5017246;28;88160;-70
2022/06/13 09:23:00;;;;;;;4.68;1.27;;;;;;;;;;5018662;28;86978;-68
2022/06/13 09:25:32;;;;;;;7.18;1.27;;;;;;;;;;5006398;28;87552;-69
2022/06/13 09:28:02;;;;;;;9.48;1.55;;;;;;;;;;5011223;27;87998;-70
2022/06/13 09:30:32;;;;;;;2.17;0.90;;;;;;;;;;5001119;28;87597;-69
2022/06/13 09:33:05;;;;;;;7.90;1.10;;;;;;;;;;5018550;28;88314;-68
2022/06/13 09:35:33;;;;;;;7.97;1.83;;;;;;;;;;4998973;28;88186;-68
2022/06/13 09:38:10;;;;;;;6.75;1.55;;;;;;;;;;5025364;28;87841;-68
2022/06/13 09:40:45;;;;;;;5.32;1.27;;;;;;;;;;5018597;28;87470;-69
2022/06/13 09:43:22;;;;;;;9.02;1.60;;;;;;;;;;5020127;28;87519;-70
2022/06/13 09:46:08;;;;;;;5.55;1.50;;;;;;;;;;5019605;28;87727;-70
2022/06/13 09:48:44;;;;;;;4.97;0.82;;;;;;;;;;5020193;28;87595;-69
2022/06/13 09:51:20;;;;;;;2.85;1.00;;;;;;;;;;5020594;28;88033;-68
2022/06/13 09:53:47;;;;;;;5.30;1.50;;;;;;;;;;5032463;28;87124;-69
2022/06/13 09:56:13;;;;;;;5.50;1.23;;;;;;;;;;5039287;27;87482;-69
2022/06/13 09:58:50;;;;;;;14.50;1.80;;;;;;;;;;5024196;28;86981;-69
2022/06/13 10:01:16;;;;;;;5.95;1.50;;;;;;;;;;5022511;28;87267;-69
2022/06/13 10:03:59;;;;;;;12.27;1.63;;;;;;;;;;5023077;28;87827;-68
2022/06/13 10:06:44;;;;;;;7.47;1.70;;;;;;;;;;5027409;28;87266;-69
2022/06/13 10:09:29;;;;;;;8.38;1.50;;;;;;;;;;5033592;27;88101;-68
2022/06/13 10:11:56;;;;;;;20.33;2.55;;;;;;;;;;5025507;27;87871;-70
2022/06/13 10:14:22;;;;;;;10.48;2.00;;;;;;;;;;5017610;27;88411;-70
2022/06/13 10:17:11;;;;;;;6.03;1.50;;;;;;;;;;5024595;27;88387;-70
2022/06/13 10:19:56;;;;;;;4.25;1.33;;;;;;;;;;5013985;28;87824;-69
2022/06/13 10:22:23;;;;;;;9.05;1.58;;;;;;;;;;5017758;28;87681;-70
2022/06/13 10:25:08;;;;;;;8.20;1.55;;;;;;;;;;5012891;27;87515;-70
2022/06/13 10:27:41;;;;;;;10.07;1.73;;;;;;;;;;5016207;28;87681;-69
2022/06/13 10:30:28;;;;;;;6.10;1.35;;;;;;;;;;5006167;28;87317;-69
2022/06/13 10:32:57;;;;;;;24.85;1.27;;;;;;;;;;5029053;27;87667;-69
2022/06/13 10:35:39;;;;;;;6.45;1.15;;;;;;;;;;4999682;28;88391;-69
2022/06/13 10:38:13;;;;;;;4.68;1.25;;;;;;;;;;4999636;28;87528;-70
2022/06/13 10:40:40;;;;;;;7.63;1.67;;;;;;;;;;5007379;28;88360;-70
2022/06/13 10:43:07;;;;;;;10.02;1.65;;;;;;;;;;5018205;28;87402;-69
2022/06/13 10:45:34;;;;;;;23.65;1.60;;;;;;;;;;5019671;28;87197;-70
2022/06/13 10:48:08;;;;;;;19.23;2.90;;;;;;;;;;5023147;28;88034;-69
2022/06/13 10:50:36;;;;;;;27.23;2.05;;;;;;;;;;5032547;27;87147;-70
2022/06/13 10:53:06;;;;;;;9.55;1.48;;;;;;;;;;5018047;27;88682;-70
2022/06/13 10:55:37;;;;;;;10.90;1.30;;;;;;;;;;5012633;28;87465;-69
2022/06/13 10:58:06;;;;;;;9.73;1.73;;;;;;;;;;5025931;28;86858;-69
2022/06/13 11:00:32;;;;;;;5.05;1.40;;;;;;;;;;5024539;28;87532;-70
2022/06/13 11:03:12;;;;;;;6.30;1.20;;;;;;;;;;5031696;27;87900;-69
2022/06/13 11:05:49;;;;;;;12.60;1.83;;;;;;;;;;5037708;27;87508;-70
2022/06/13 11:08:16;;;;;;;8.98;1.17;;;;;;;;;;4999613;28;90251;-70
2022/06/13 11:10:51;;;;;;;4.28;1.40;;;;;;;;;;5013197;28;87383;-69
2022/06/13 11:13:23;;;;;;;9.15;1.65;;;;;;;;;;5040971;28;87405;-69
2022/06/13 11:24:21;;;;;;;8.15;1.25;;;;;;;;;;5012134;28;88360;-69
2022/06/13 11:29:35;;;;;;;2.38;1.00;;;;;;;;;;5019079;28;88738;-69
2022/06/13 11:32:03;;;;;;;8.43;1.42;;;;;;;;;;5036312;28;87532;-69
2022/06/13 11:34:32;;;;;;;6.70;1.00;;;;;;;;;;5039005;27;87611;-68
2022/06/13 11:37:21;;;;;;;8.90;1.83;;;;;;;;;;5033978;27;88337;-69
2022/06/13 11:39:48;;;;;;;5.38;1.17;;;;;;;;;;5023747;27;88748;-73
2022/06/13 11:42:26;;;;;;;5.90;1.38;;;;;;;;;;5031962;28;87693;-69
2022/06/13 11:45:02;;;;;;;7.63;1.38;;;;;;;;;;5036763;28;87611;-69
2022/06/13 11:47:41;;;;;;;4.80;1.33;;;;;;;;;;5026601;28;87757;-70
2022/06/13 11:50:20;;;;;;;3.38;1.10;;;;;;;;;;5017653;27;88102;-70
2022/06/13 11:55:39;;;;;;;4.22;1.10;;;;;;;;;;5016438;27;87583;-69
2022/06/13 11:58:05;;;;;;;7.88;1.20;;;;;;;;;;5015014;28;87530;-69
2022/06/13 12:00:34;;;;;;;10.88;1.63;;;;;;;;;;5036946;28;87387;-70
2022/06/13 12:03:16;;;;;;;9.38;1.10;;;;;;;;;;5018666;28;87739;-70
2022/06/13 12:05:42;;;;;;;4.93;1.00;;;;;;;;;;5027986;28;87486;-70
2022/06/13 12:08:15;;;;;;;9.75;1.30;;;;;;;;;;5034501;28;89226;-70
2022/06/13 12:10:53;;;;;;;5.03;1.00;;;;;;;;;;5031414;27;88043;-70
2022/06/13 12:13:22;;;;;;;4.28;1.20;;;;;;;;;;5016528;28;89563;-70
2022/06/13 12:15:52;;;;;;;2.40;1.02;;;;;;;;;;5015571;28;89163;-69
2022/06/13 12:18:42;;;;;;;7.90;1.35;;;;;;;;;;5034789;28;88810;-70
2022/06/13 12:21:22;;;;;;;7.18;1.27;;;;;;;;;;5040303;27;89417;-70
2022/06/13 12:23:55;;;;;;;6.63;1.33;;;;;;;;;;5031729;27;88404;-70
2022/06/13 12:26:29;;;;;;;3.50;1.00;;;;;;;;;;5025545;27;88621;-70
2022/06/13 12:29:03;;;;;;;3.85;0.82;;;;;;;;;;5015332;27;89093;-69
2022/06/13 12:31:44;;;;;;;6.05;1.05;;;;;;;;;;5016909;28;88012;-69
2022/06/13 12:34:13;;;;;;;7.30;1.40;;;;;;;;;;5019060;28;88775;-70
2022/06/13 12:36:58;;;;;;;7.40;1.52;;;;;;;;;;5027473;27;89340;-70
2022/06/13 12:39:42;;;;;;;5.35;1.30;;;;;;;;;;5040798;27;88232;-70
2022/06/13 12:42:17;;;;;;;2.17;0.90;;;;;;;;;;5019708;28;88982;-69
2022/06/13 12:45:12;;;;;;;5.45;1.10;;;;;;;;;;5021702;28;89827;-69
2022/06/13 12:47:46;;;;;;;3.85;1.15;;;;;;;;;;5024817;28;89474;-70
2022/06/13 12:50:23;;;;;;;6.40;1.45;;;;;;;;;;5031221;27;89473;-70
2022/06/13 12:53:02;;;;;;;7.60;1.30;;;;;;;;;;5016390;28;88029;-70
2022/06/13 12:55:31;;;;;;;5.65;0.93;;;;;;;;;;5016883;28;89152;-70
2022/06/13 12:58:16;;;;;;;3.33;1.00;;;;;;;;;;5031094;28;89394;-70
2022/06/13 13:00:46;;;;;;;3.58;0.90;;;;;;;;;;5019379;28;88161;-69
2022/06/13 13:03:26;;;;;;;3.25;0.85;;;;;;;;;;5018888;28;89881;-70
2022/06/13 13:05:58;;;;;;;5.45;1.25;;;;;;;;;;5013243;28;88743;-70
2022/06/13 13:08:27;;;;;;;6.38;1.10;;;;;;;;;;5016444;28;89371;-69
2022/06/13 13:11:12;;;;;;;3.15;1.08;;;;;;;;;;5039355;27;89606;-69
2022/06/13 13:13:47;;;;;;;1.95;0.75;;;;;;;;;;5037158;27;88004;-69
2022/06/13 13:16:22;;;;;;;7.68;1.15;;;;;;;;;;5009884;27;88916;-70
2022/06/13 13:18:56;;;;;;;4.00;0.80;;;;;;;;;;5036671;27;89146;-70
2022/06/13 13:21:32;;;;;;;5.35;1.38;;;;;;;;;;5020584;28;87978;-70
2022/06/13 13:24:19;;;;;;;2.70;0.77;;;;;;;;;;5039759;27;88836;-70
2022/06/13 13:26:51;;;;;;;3.15;0.90;;;;;;;;;;5037984;27;89090;-69
2022/06/13 13:29:29;;;;;;;2.92;1.02;;;;;;;;;;5034538;28;87628;-70
2022/06/13 13:32:05;;;;;;;6.55;1.27;;;;;;;;;;5025198;27;88001;-70
2022/06/13 13:34:50;;;;;;;7.45;1.67;;;;;;;;;;5025084;28;87949;-70
2022/06/13 13:37:25;;;;;;;4.07;1.05;;;;;;;;;;5019379;28;89146;-70
2022/06/13 13:39:51;;;;;;;5.95;1.17;;;;;;;;;;5025161;28;92646;-70
2022/06/13 13:42:38;;;;;;;17.25;1.58;;;;;;;;;;5032199;28;88238;-70
2022/06/13 13:45:25;;;;;;;5.53;1.05;;;;;;;;;;5014141;28;88601;-69
2022/06/13 13:47:55;;;;;;;10.10;1.23;;;;;;;;;;5024555;27;89099;-68
2022/06/13 13:50:26;;;;;;;6.22;1.83;;;;;;;;;;5027375;27;88090;-68
2022/06/13 13:52:55;;;;;;;5.15;1.30;;;;;;;;;;5014742;28;88701;-68
2022/06/13 13:55:31;;;;;;;5.80;1.23;;;;;;;;;;5021277;28;88150;-68
2022/06/13 13:58:04;;;;;;;3.13;0.75;;;;;;;;;;5019476;28;87926;-68
2022/06/13 14:00:40;;;;;;;7.68;1.27;;;;;;;;;;5032130;28;89408;-68
2022/06/13 14:03:13;;;;;;;6.88;1.48;;;;;;;;;;5039081;27;88730;-68
2022/06/13 14:05:50;;;;;;;7.10;1.17;;;;;;;;;;5030632;27;89702;-68
2022/06/13 14:08:18;;;;;;;2.72;0.73;;;;;;;;;;5012240;28;88657;-69
2022/06/13 14:10:46;;;;;;;7.40;0.98;;;;;;;;;;5015360;28;88907;-69
2022/06/13 14:13:15;;;;;;;5.32;1.33;;;;;;;;;;5018619;28;88829;-69
2022/06/13 14:15:50;;;;;;;8.52;1.98;;;;;;;;;;5017594;28;88828;-68
2022/06/13 14:18:24;;;;;;;6.40;1.42;;;;;;;;;;5025735;28;88677;-68
2022/06/13 14:20:51;;;;;;;9.32;1.65;;;;;;;;;;5024960;27;88408;-69
2022/06/13 14:23:19;;;;;;;4.57;1.45;;;;;;;;;;5018952;28;87902;-68
2022/06/13 14:25:45;;;;;;;7.22;1.58;;;;;;;;;;5018726;28;88904;-68
2022/06/13 14:28:14;;;;;;;7.20;1.30;;;;;;;;;;5018703;28;89795;-68
2022/06/13 14:31:06;;;;;;;8.10;2.28;;;;;;;;;;5017055;28;89552;-68
2022/06/13 14:36:50;;;;;;;8.10;1.70;;;;;;;;;;5018845;28;89034;-68
2022/06/13 14:39:20;;;;;;;10.00;1.70;;;;;;;;;;5039505;28;88079;-68
2022/06/13 14:41:47;;;;;;;3.58;1.15;;;;;;;;;;5038669;27;89173;-68
2022/06/13 14:44:19;;;;;;;4.55;1.40;;;;;;;;;;5036163;27;88092;-71
2022/06/13 14:46:48;;;;;;;12.73;2.33;;;;;;;;;;5023185;27;88775;-69
2022/06/13 14:49:35;;;;;;;41.78;4.03;;;;;;;;;;5022629;28;90522;-69
2022/06/13 14:52:18;;;;;;;5.60;1.30;;;;;;;;;;5013506;28;87925;-69
2022/06/13 14:54:51;;;;;;;18.08;1.92;;;;;;;;;;5009412;28;89103;-69
2022/06/13 14:57:26;;;;;;;12.15;1.67;;;;;;;;;;5038578;27;89477;-69
2022/06/13 15:00:01;;;;;;;9.43;1.30;;;;;;;;;;5022944;28;88046;-69
2022/06/13 15:02:28;;;;;;;7.38;1.70;;;;;;;;;;5023389;28;88983;-69
2022/06/13 15:05:00;;;;;;;8.82;1.70;;;;;;;;;;5026122;28;88060;-69
2022/06/13 15:07:35;;;;;;;5.30;1.05;;;;;;;;;;5027104;27;89042;-69
2022/06/13 15:10:13;;;;;;;11.98;1.60;;;;;;;;;;5026392;28;89105;-69
2022/06/13 15:12:42;;;;;;;8.13;1.40;;;;;;;;;;5038359;27;88437;-69
2022/06/13 15:15:27;;;;;;;7.60;1.70;;;;;;;;;;5015597;28;88028;-69
2022/06/13 15:17:55;;;;;;;7.53;1.35;;;;;;;;;;5017178;28;89248;-69
2022/06/13 15:20:31;;;;;;;4.68;1.30;;;;;;;;;;5021679;27;88600;-69
2022/06/13 15:23:02;;;;;;;4.07;1.48;;;;;;;;;;5019958;28;91693;-69
2022/06/13 15:25:35;;;;;;;6.95;1.60;;;;;;;;;;5039814;28;89120;-69
2022/06/13 15:28:02;;;;;;;9.98;1.30;;;;;;;;;;5029060;27;88728;-69
2022/06/13 15:30:42;;;;;;;6.55;1.60;;;;;;;;;;5036626;27;88820;-69
2022/06/13 15:33:09;;;;;;;5.93;1.40;;;;;;;;;;5038065;27;88760;-69
2022/06/13 15:35:47;;;;;;;5.95;1.35;;;;;;;;;;5033707;27;88559;-68
2022/06/13 15:38:15;;;;;;;5.22;1.52;;;;;;;;;;5020417;27;88367;-67